Time;durP1;ratioP1;P1;durP2;ratioP2;P2;SDS_P1;SDS_P2;PMS_P1;PMS_P2;Temp;Humidity;BMP_temperature;BMP_pressure;BME280_temperature;BME280_humidity;BME280_pressure;Samples;Min_cycle;Max_cycle;Signal;HPM_P1;HPM_P2
2022/05/04 00:02:23;;;;;;;12.23;7.85;;;13.90;83.80;;;;;;5011858;28;20034;-52
2022/05/04 00:04:49;;;;;;;9.48;8.27;;;13.70;84.50;;;;;;5013442;28;20120;-53
2022/05/04 00:07:15;;;;;;;10.80;8.30;;;13.70;84.80;;;;;;5013714;28;20030;-51
2022/05/04 00:09:41;;;;;;;10.15;8.40;;;13.60;85.20;;;;;;5012377;28;20048;-56
2022/05/04 00:12:07;;;;;;;13.15;8.93;;;13.60;85.50;;;;;;5012393;28;20531;-51
2022/05/04 00:14:32;;;;;;;10.73;8.48;;;13.60;85.60;;;;;;5012137;28;20080;-53
2022/05/04 00:16:58;;;;;;;11.73;8.70;;;13.50;86.00;;;;;;5011023;28;20116;-53
2022/05/04 00:19:23;;;;;;;10.35;8.45;;;13.50;86.50;;;;;;5012483;28;20034;-51
2022/05/04 00:21:49;;;;;;;9.25;7.75;;;13.40;86.30;;;;;;5012594;28;20037;-53
2022/05/04 00:24:19;;;;;;;8.68;7.78;;;13.50;86.20;;;;;;5012211;28;20038;-54
2022/05/04 00:26:48;;;;;;;10.50;7.90;;;13.50;86.70;;;;;;5011903;28;20099;-51
2022/05/04 00:29:13;;;;;;;8.93;7.78;;;13.40;86.50;;;;;;5011541;28;20041;-51
2022/05/04 00:31:39;;;;;;;11.40;8.45;;;13.50;86.70;;;;;;5010288;28;20042;-55
2022/05/04 00:34:05;;;;;;;9.38;8.15;;;13.50;86.80;;;;;;5011302;28;20026;-49
2022/05/04 00:36:31;;;;;;;12.32;8.38;;;13.60;86.00;;;;;;5011248;28;20026;-53
2022/05/04 00:38:57;;;;;;;10.32;8.20;;;13.50;86.00;;;;;;5012368;28;20026;-53
2022/05/04 00:41:23;;;;;;;10.32;8.25;;;13.40;86.40;;;;;;5013284;28;20037;-51
2022/05/04 00:43:53;;;;;;;12.18;9.15;;;13.30;86.70;;;;;;5013505;28;20068;-52
2022/05/04 00:46:20;;;;;;;9.63;8.60;;;13.20;87.10;;;;;;5018846;28;20026;-54
2022/05/04 00:48:46;;;;;;;13.90;8.77;;;13.20;87.10;;;;;;5020118;28;20041;-53
2022/05/04 00:51:11;;;;;;;10.30;8.50;;;13.20;87.30;;;;;;5015168;28;20379;-56
2022/05/04 00:53:39;;;;;;;10.10;8.93;;;13.10;87.60;;;;;;5011362;28;20098;-54
2022/05/04 00:56:08;;;;;;;10.60;8.63;;;13.10;87.50;;;;;;5011914;28;20030;-52
2022/05/04 01:01:20;;;;;;;10.38;8.25;;;13.00;87.90;;;;;;5011880;28;20037;-55
2022/05/04 01:03:45;;;;;;;10.63;8.85;;;12.90;88.30;;;;;;5012186;28;20038;-56
2022/05/04 01:06:12;;;;;;;14.32;9.85;;;12.80;88.60;;;;;;5011418;28;20469;-54
2022/05/04 01:08:38;;;;;;;15.50;9.27;;;12.70;89.00;;;;;;5010045;28;20564;-56
2022/05/04 01:11:04;;;;;;;11.05;9.52;;;12.60;89.50;;;;;;5012086;28;20130;-54
2022/05/04 01:13:30;;;;;;;12.90;9.02;;;12.70;89.20;;;;;;5012429;28;20038;-54
2022/05/04 01:15:56;;;;;;;11.32;9.27;;;12.50;89.20;;;;;;5012269;28;20531;-51
2022/05/04 01:18:21;;;;;;;10.05;8.93;;;12.50;89.70;;;;;;5011484;28;20105;-56
2022/05/04 01:20:47;;;;;;;12.75;9.77;;;12.50;89.80;;;;;;5011592;28;20498;-55
2022/05/04 01:23:13;;;;;;;11.20;9.73;;;12.50;89.70;;;;;;5011423;28;20052;-55
2022/05/04 01:25:38;;;;;;;12.02;9.57;;;12.30;90.10;;;;;;5011629;28;20042;-52
2022/05/04 01:28:05;;;;;;;11.65;10.20;;;12.30;90.00;;;;;;5011501;28;20041;-53
2022/05/04 01:30:32;;;;;;;10.55;9.35;;;12.30;90.00;;;;;;5011032;28;20030;-53
2022/05/04 01:32:59;;;;;;;16.02;11.07;;;12.40;89.90;;;;;;5010968;28;20136;-53
2022/05/04 01:35:24;;;;;;;12.43;9.38;;;12.30;90.10;;;;;;5011144;28;20589;-55
2022/05/04 01:37:51;;;;;;;12.68;9.65;;;12.20;90.40;;;;;;5010250;28;20046;-54
2022/05/04 01:40:17;;;;;;;15.82;10.63;;;12.20;90.30;;;;;;5011162;28;20512;-54
2022/05/04 01:42:42;;;;;;;16.73;10.48;;;12.00;90.50;;;;;;5010725;28;20429;-53
2022/05/04 01:45:09;;;;;;;11.52;9.52;;;12.10;90.50;;;;;;5009709;28;20037;-55
2022/05/04 01:47:35;;;;;;;14.10;9.82;;;12.00;90.50;;;;;;5010608;28;20072;-51
2022/05/04 01:50:01;;;;;;;12.43;9.57;;;12.00;90.60;;;;;;5010962;28;20061;-50
2022/05/04 01:52:27;;;;;;;13.30;10.00;;;11.90;90.70;;;;;;5010418;28;20042;-53
2022/05/04 01:54:53;;;;;;;15.63;10.40;;;12.00;90.60;;;;;;5011198;28;20484;-49
2022/05/04 01:57:20;;;;;;;15.90;9.88;;;12.00;90.70;;;;;;5011720;28;20038;-48
2022/05/04 01:59:45;;;;;;;11.23;9.10;;;12.10;90.60;;;;;;5011452;28;20084;-56
2022/05/04 02:02:11;;;;;;;19.40;10.85;;;12.10;90.50;;;;;;5011079;28;20457;-52
2022/05/04 02:04:38;;;;;;;12.93;9.73;;;12.30;90.30;;;;;;5011510;28;20429;-53
2022/05/04 02:07:07;;;;;;;16.48;10.25;;;12.10;90.20;;;;;;5009680;28;20557;-57
2022/05/04 02:09:32;;;;;;;11.57;9.20;;;11.90;90.90;;;;;;5010968;28;20030;-53
2022/05/04 02:11:58;;;;;;;14.45;9.50;;;12.00;90.80;;;;;;5010235;28;20034;-55
2022/05/04 02:14:25;;;;;;;13.93;10.45;;;11.80;91.00;;;;;;5008930;28;20034;-50
2022/05/04 02:16:51;;;;;;;15.45;9.55;;;11.70;91.30;;;;;;5010663;28;20030;-49
2022/05/04 02:19:16;;;;;;;14.55;9.82;;;11.70;91.20;;;;;;5009894;28;20048;-54
2022/05/04 02:21:42;;;;;;;14.15;10.13;;;11.90;91.10;;;;;;5009775;28;20034;-48
2022/05/04 02:24:08;;;;;;;15.45;12.57;;;11.80;91.10;;;;;;5009052;28;20041;-48
2022/05/04 02:26:34;;;;;;;12.88;10.85;;;11.80;91.50;;;;;;5010600;28;20029;-53
2022/05/04 02:28:59;;;;;;;16.00;12.82;;;11.80;91.30;;;;;;5011466;28;20121;-52
2022/05/04 02:31:25;;;;;;;18.52;12.70;;;11.90;91.30;;;;;;5011065;28;20034;-50
2022/05/04 02:33:50;;;;;;;14.70;12.73;;;11.90;91.30;;;;;;5010986;28;20034;-54
2022/05/04 02:39:00;;;;;;;14.68;10.00;;;12.00;91.10;;;;;;5010485;28;20109;-53
2022/05/04 02:41:25;;;;;;;14.98;9.82;;;11.90;91.20;;;;;;5011942;28;20058;-57
2022/05/04 02:43:51;;;;;;;16.65;11.57;;;11.90;91.00;;;;;;5010791;28;20076;-55
2022/05/04 02:46:19;;;;;;;15.15;10.93;;;11.90;91.20;;;;;;5009826;28;20049;-54
2022/05/04 02:48:45;;;;;;;14.30;9.63;;;11.90;91.10;;;;;;5010812;28;20034;-54
2022/05/04 02:51:11;;;;;;;11.70;10.25;;;11.80;91.00;;;;;;5010854;28;20486;-55
2022/05/04 02:53:37;;;;;;;13.70;10.68;;;11.80;91.10;;;;;;5009753;28;20084;-53
2022/05/04 02:56:05;;;;;;;16.45;12.18;;;11.80;91.20;;;;;;5010408;28;20689;-53
2022/05/04 02:58:31;;;;;;;14.55;11.65;;;11.80;91.40;;;;;;5010647;28;20026;-51
2022/05/04 03:02:26;;;;;;;15.77;12.50;;;11.70;91.30;;;;;;5010989;28;20056;-53
2022/05/04 03:03:52;;;;;;;15.13;11.57;;;11.80;91.60;;;;;;5010927;28;20137;-53
2022/05/04 03:06:18;;;;;;;14.13;10.63;;;11.80;91.40;;;;;;5010613;28;20117;-53
2022/05/04 03:08:44;;;;;;;16.13;11.73;;;11.90;91.10;;;;;;5010152;28;20034;-54
2022/05/04 03:13:53;;;;;;;13.30;10.40;;;11.90;91.10;;;;;;5011248;28;20030;-52
2022/05/04 03:16:19;;;;;;;14.30;10.20;;;11.80;91.20;;;;;;5010670;28;20030;-48
2022/05/04 03:18:44;;;;;;;14.35;10.10;;;11.80;91.20;;;;;;5010379;28;20428;-55
2022/05/04 03:21:10;;;;;;;13.18;9.38;;;11.80;91.10;;;;;;5013522;28;20034;-53
2022/05/04 03:23:35;;;;;;;13.88;10.63;;;11.80;91.10;;;;;;5013719;28;20037;-49
2022/05/04 03:26:01;;;;;;;14.82;10.20;;;11.70;91.10;;;;;;5013106;28;20030;-53
2022/05/04 03:28:26;;;;;;;15.80;11.82;;;11.70;91.30;;;;;;5012397;28;20030;-54
2022/05/04 03:30:52;;;;;;;13.70;9.60;;;11.70;91.40;;;;;;5012965;28;20482;-54
2022/05/04 03:33:17;;;;;;;15.80;10.32;;;11.70;91.20;;;;;;5014134;28;20180;-51
2022/05/04 03:35:43;;;;;;;11.90;9.05;;;11.80;91.00;;;;;;5012937;28;20508;-52
2022/05/04 03:38:08;;;;;;;14.40;9.60;;;11.70;91.00;;;;;;5013516;28;20060;-52
2022/05/04 03:40:34;;;;;;;15.52;9.93;;;11.60;91.60;;;;;;5013014;28;20036;-52
2022/05/04 03:43:00;;;;;;;13.70;9.70;;;11.60;91.50;;;;;;5012966;28;20044;-49
2022/05/04 03:45:27;;;;;;;11.95;9.25;;;11.50;91.40;;;;;;5013393;28;20036;-50
2022/05/04 03:47:53;;;;;;;13.80;10.25;;;11.50;91.90;;;;;;5013461;28;20490;-53
2022/05/04 03:50:19;;;;;;;16.13;9.88;;;11.40;91.90;;;;;;5013713;28;20088;-50
2022/05/04 03:52:44;;;;;;;16.02;10.35;;;11.40;91.60;;;;;;5013478;28;20038;-50
2022/05/04 03:55:10;;;;;;;14.20;10.07;;;11.40;91.80;;;;;;5012686;28;20375;-53
2022/05/04 03:57:35;;;;;;;15.82;9.80;;;11.40;92.20;;;;;;5011779;28;20037;-55
2022/05/04 04:00:01;;;;;;;12.60;9.77;;;11.50;91.90;;;;;;5012944;28;20041;-58
2022/05/04 04:02:26;;;;;;;14.82;9.35;;;11.50;92.00;;;;;;5013112;28;20065;-51
2022/05/04 04:04:52;;;;;;;15.93;9.02;;;11.40;91.90;;;;;;5012714;28;20097;-53
2022/05/04 04:07:18;;;;;;;16.00;9.88;;;11.40;91.90;;;;;;5012635;28;20069;-53
2022/05/04 04:09:43;;;;;;;38.45;23.55;;;11.40;91.60;;;;;;5012350;28;20034;-53
2022/05/04 04:12:09;;;;;;;13.77;10.13;;;11.40;92.10;;;;;;5012503;28;20103;-54
2022/05/04 04:14:35;;;;;;;16.30;9.73;;;11.40;91.80;;;;;;5012090;28;20043;-50
2022/05/04 04:17:00;;;;;;;17.38;10.57;;;11.40;91.60;;;;;;5014290;28;20049;-54
2022/05/04 04:19:26;;;;;;;16.67;10.18;;;11.20;91.80;;;;;;5013435;28;20418;-53
2022/05/04 04:21:52;;;;;;;16.98;9.65;;;11.20;92.10;;;;;;5012621;28;20034;-53
2022/05/04 04:24:18;;;;;;;18.00;10.05;;;11.30;91.80;;;;;;5012900;28;20041;-53
2022/05/04 04:26:44;;;;;;;17.95;9.48;;;11.30;92.00;;;;;;5012847;28;20037;-51
2022/05/04 04:29:11;;;;;;;16.02;8.82;;;11.30;91.80;;;;;;5011569;28;20030;-55
2022/05/04 04:31:36;;;;;;;16.25;9.50;;;11.20;91.90;;;;;;5010301;28;20038;-53
2022/05/04 04:34:02;;;;;;;12.45;8.57;;;11.30;91.70;;;;;;5011931;28;20042;-53
2022/05/04 04:36:28;;;;;;;16.67;9.57;;;11.40;91.40;;;;;;5012147;28;20037;-52
2022/05/04 04:38:54;;;;;;;15.23;9.75;;;11.40;91.30;;;;;;5012369;28;20147;-56
2022/05/04 04:41:19;;;;;;;12.43;8.52;;;11.40;91.30;;;;;;5012294;28;20026;-50
2022/05/04 04:43:45;;;;;;;14.68;9.13;;;11.50;91.30;;;;;;5012226;28;20466;-54
2022/05/04 04:46:10;;;;;;;14.60;8.73;;;11.50;91.20;;;;;;5013044;28;20554;-51
2022/05/04 04:48:36;;;;;;;12.73;8.68;;;11.50;91.00;;;;;;5012818;28;20136;-53
2022/05/04 04:51:02;;;;;;;25.25;9.77;;;11.40;91.10;;;;;;5013378;28;20044;-51
2022/05/04 04:53:28;;;;;;;18.05;10.20;;;11.40;91.10;;;;;;5012332;28;20509;-53
2022/05/04 04:55:53;;;;;;;13.43;9.00;;;11.30;91.40;;;;;;5012163;28;20478;-50
2022/05/04 04:58:19;;;;;;;18.90;9.25;;;11.20;91.50;;;;;;5011875;28;20049;-52
2022/05/04 05:00:45;;;;;;;14.05;8.95;;;11.10;91.60;;;;;;5012014;28;20057;-52
2022/05/04 05:03:10;;;;;;;15.63;9.43;;;11.10;91.80;;;;;;5011955;28;20040;-54
2022/05/04 05:05:41;;;;;;;17.58;9.45;;;11.10;91.80;;;;;;5012138;28;20058;-50
2022/05/04 05:08:07;;;;;;;13.57;9.48;;;11.00;91.70;;;;;;5012073;28;20041;-56
2022/05/04 05:10:34;;;;;;;18.75;10.70;;;11.20;91.70;;;;;;5012305;28;20045;-53
2022/05/04 05:12:59;;;;;;;18.45;9.30;;;11.40;91.50;;;;;;5012813;28;20069;-50
2022/05/04 05:18:09;;;;;;;17.85;8.60;;;11.20;91.70;;;;;;4999921;28;20493;-56
2022/05/04 05:20:35;;;;;;;15.30;8.70;;;11.30;91.40;;;;;;5012822;28;20069;-56
2022/05/04 05:23:02;;;;;;;16.58;9.32;;;11.40;91.30;;;;;;5011955;28;20117;-55
2022/05/04 05:25:29;;;;;;;18.73;8.85;;;11.40;91.30;;;;;;5011376;28;20041;-51
2022/05/04 05:27:55;;;;;;;15.65;8.40;;;11.30;91.20;;;;;;5015558;28;20030;-54
2022/05/04 05:30:21;;;;;;;18.30;9.02;;;11.40;91.20;;;;;;5020321;28;20038;-53
2022/05/04 05:32:46;;;;;;;16.45;8.57;;;11.50;91.00;;;;;;5016279;28;20446;-50
2022/05/04 05:35:12;;;;;;;17.02;8.30;;;11.30;91.20;;;;;;5012004;28;20042;-53
2022/05/04 05:37:38;;;;;;;21.20;8.07;;;11.30;90.90;;;;;;5011955;28;20034;-54
2022/05/04 05:40:04;;;;;;;17.23;8.95;;;11.40;90.70;;;;;;5011183;28;20049;-56
2022/05/04 05:42:30;;;;;;;14.63;8.82;;;11.50;90.60;;;;;;5012227;28;20418;-54
2022/05/04 05:44:55;;;;;;;15.35;8.45;;;11.50;90.20;;;;;;5010193;28;20129;-52
2022/05/04 05:47:21;;;;;;;14.20;8.40;;;11.50;90.30;;;;;;5011576;28;20040;-53
2022/05/04 05:49:46;;;;;;;11.60;7.70;;;11.50;90.30;;;;;;5011963;28;20231;-53
2022/05/04 05:52:12;;;;;;;14.15;8.20;;;11.60;90.20;;;;;;5011511;28;20033;-55
2022/05/04 05:54:37;;;;;;;18.88;9.23;;;11.80;89.50;;;;;;5011608;28;20080;-56
2022/05/04 05:57:03;;;;;;;13.90;7.38;;;11.70;89.80;;;;;;5011402;28;20040;-55
2022/05/04 05:59:29;;;;;;;14.55;7.72;;;11.70;89.60;;;;;;5011596;28;20052;-55
2022/05/04 06:01:55;;;;;;;15.52;7.95;;;11.70;88.90;;;;;;5011188;28;20030;-55
2022/05/04 06:04:20;;;;;;;17.50;8.35;;;11.80;88.40;;;;;;5009362;28;20117;-54
2022/05/04 06:06:46;;;;;;;14.40;7.72;;;11.60;89.20;;;;;;5009585;28;20049;-55
2022/05/04 06:09:12;;;;;;;19.23;7.40;;;11.70;89.40;;;;;;5011881;28;20045;-51
2022/05/04 06:11:37;;;;;;;17.77;8.10;;;11.80;88.40;;;;;;5011610;28;20109;-53
2022/05/04 06:14:03;;;;;;;12.73;7.32;;;11.80;88.50;;;;;;5011154;28;20044;-53
2022/05/04 06:16:29;;;;;;;19.50;8.20;;;11.90;88.00;;;;;;5011504;28;20041;-56
2022/05/04 06:18:54;;;;;;;16.70;7.72;;;11.80;88.90;;;;;;5011853;28;20073;-57
2022/05/04 06:21:20;;;;;;;20.60;7.55;;;12.10;88.00;;;;;;5011941;28;20026;-52
2022/05/04 06:23:46;;;;;;;18.42;8.38;;;12.30;87.20;;;;;;5012077;28;20080;-51
2022/05/04 06:26:13;;;;;;;24.35;8.63;;;12.30;86.10;;;;;;5012077;28;20028;-55
2022/05/04 06:28:38;;;;;;;19.80;7.88;;;12.30;86.20;;;;;;5011996;28;20125;-53
2022/05/04 06:34:06;;;;;;;17.77;7.87;;;12.20;86.20;;;;;;5010847;28;20136;-53
2022/05/04 06:36:32;;;;;;;15.05;7.93;;;12.30;86.10;;;;;;5011304;28;20144;-51
2022/05/04 06:38:58;;;;;;;17.58;9.98;;;12.40;85.80;;;;;;5010905;28;20049;-50
2022/05/04 06:41:24;;;;;;;18.75;7.07;;;12.50;85.70;;;;;;5011311;28;20453;-53
2022/05/04 06:43:49;;;;;;;15.98;7.47;;;12.50;85.00;;;;;;5010773;28;20034;-57
2022/05/04 06:46:15;;;;;;;16.05;6.80;;;12.70;85.00;;;;;;5009481;28;20061;-54
2022/05/04 06:48:41;;;;;;;16.00;7.50;;;13.00;84.10;;;;;;5010648;28;20434;-51
2022/05/04 06:51:07;;;;;;;14.10;7.85;;;13.10;83.60;;;;;;5011121;28;20045;-49
2022/05/04 06:53:33;;;;;;;17.90;8.20;;;13.20;83.90;;;;;;5007842;28;20058;-50
2022/05/04 06:55:59;;;;;;;12.52;7.45;;;13.20;83.80;;;;;;5011822;28;20030;-54
2022/05/04 06:58:25;;;;;;;19.05;7.43;;;13.20;84.30;;;;;;5014466;28;20029;-52
2022/05/04 07:00:50;;;;;;;13.98;6.68;;;13.20;84.20;;;;;;5014048;28;20049;-53
2022/05/04 07:03:16;;;;;;;34.17;10.85;;;13.30;84.20;;;;;;5014482;28;20385;-58
2022/05/04 07:05:41;;;;;;;17.67;9.02;;;13.30;83.60;;;;;;5012802;28;20565;-50
2022/05/04 07:08:07;;;;;;;20.85;7.38;;;13.30;84.20;;;;;;5005870;28;20041;-52
2022/05/04 07:10:34;;;;;;;23.63;10.50;;;13.20;84.20;;;;;;4995299;28;20069;-55
2022/05/04 07:13:00;;;;;;;17.63;7.45;;;13.10;84.70;;;;;;4995320;28;20030;-54
2022/05/04 07:15:25;;;;;;;22.30;7.80;;;13.20;84.40;;;;;;4997923;28;20089;-52
2022/05/04 07:17:51;;;;;;;15.90;7.75;;;13.20;84.50;;;;;;5014257;28;20029;-57
2022/05/04 07:20:16;;;;;;;15.32;7.35;;;13.10;84.50;;;;;;5013801;28;20108;-54
2022/05/04 07:22:42;;;;;;;25.83;8.65;;;13.20;84.50;;;;;;5013746;28;20449;-55
2022/05/04 07:25:08;;;;;;;17.23;7.85;;;13.40;84.10;;;;;;5013919;28;20029;-55
2022/05/04 07:27:33;;;;;;;13.88;7.60;;;13.30;84.80;;;;;;5013879;28;20116;-55
2022/05/04 07:29:59;;;;;;;15.23;8.38;;;13.30;85.40;;;;;;5013774;28;20033;-56
2022/05/04 07:32:24;;;;;;;14.65;7.40;;;13.50;85.00;;;;;;5013792;28;20041;-58
2022/05/04 07:34:50;;;;;;;13.40;7.65;;;13.50;85.00;;;;;;5014692;28;20062;-55
2022/05/04 07:37:16;;;;;;;16.42;7.60;;;13.40;85.80;;;;;;5014227;28;20084;-56
2022/05/04 07:42:26;;;;;;;13.93;8.00;;;13.50;85.00;;;;;;5013754;28;20057;-48
2022/05/04 07:44:59;;;;;;;20.45;7.70;;;13.60;84.90;;;;;;5014294;28;20494;-56
2022/05/04 07:47:30;;;;;;;18.95;8.05;;;13.60;85.30;;;;;;5014253;28;20041;-50
2022/05/04 07:49:56;;;;;;;21.73;9.20;;;13.50;85.90;;;;;;5008926;28;20073;-57
2022/05/04 07:52:22;;;;;;;15.32;7.40;;;13.60;85.70;;;;;;5008151;28;20029;-55
2022/05/04 07:54:48;;;;;;;15.32;7.68;;;13.50;85.30;;;;;;5020052;28;20068;-52
2022/05/04 07:57:14;;;;;;;16.75;8.27;;;13.50;85.20;;;;;;5013258;28;20037;-58
2022/05/04 07:59:40;;;;;;;16.15;8.13;;;13.50;85.10;;;;;;5012248;28;20018;-55
2022/05/04 08:04:51;;;;;;;16.02;8.98;;;13.60;85.40;;;;;;4993549;28;20034;-59
2022/05/04 08:07:17;;;;;;;29.85;9.73;;;13.50;86.00;;;;;;4991695;28;20410;-55
2022/05/04 08:09:43;;;;;;;11.02;7.82;;;13.60;86.20;;;;;;5013469;28;20037;-55
2022/05/04 08:12:11;;;;;;;16.05;8.73;;;13.60;86.00;;;;;;5012865;28;20036;-55
2022/05/04 08:14:39;;;;;;;15.75;8.48;;;13.70;85.50;;;;;;4993835;28;20034;-52
2022/05/04 08:17:05;;;;;;;15.07;7.93;;;13.70;85.70;;;;;;4993420;28;20038;-55
2022/05/04 08:19:31;;;;;;;13.90;8.45;;;13.60;86.10;;;;;;5012255;28;20026;-55
2022/05/04 08:21:57;;;;;;;14.27;7.60;;;13.70;86.70;;;;;;5012917;28;20034;-56
2022/05/04 08:24:23;;;;;;;18.42;8.50;;;13.60;87.40;;;;;;5012810;28;20509;-58
2022/05/04 08:26:49;;;;;;;23.48;8.18;;;13.60;87.80;;;;;;5011211;28;20038;-59
2022/05/04 08:29:14;;;;;;;14.70;8.00;;;13.70;88.30;;;;;;5013184;28;20048;-57
2022/05/04 08:31:40;;;;;;;14.95;8.35;;;13.70;89.00;;;;;;5012609;28;20121;-60
2022/05/04 08:34:07;;;;;;;16.73;9.23;;;13.70;89.40;;;;;;5011640;28;20116;-61
2022/05/04 08:36:32;;;;;;;19.70;8.98;;;13.80;88.80;;;;;;5011361;28;20428;-59
2022/05/04 08:38:58;;;;;;;16.58;9.77;;;13.70;88.50;;;;;;5011322;28;20145;-58
2022/05/04 08:41:25;;;;;;;17.70;8.38;;;13.70;88.90;;;;;;5012152;28;20371;-60
2022/05/04 08:43:51;;;;;;;16.08;9.95;;;13.70;88.70;;;;;;5010173;28;20033;-58
2022/05/04 08:46:21;;;;;;;13.65;9.32;;;13.60;89.00;;;;;;5011383;28;20041;-60
2022/05/04 08:48:47;;;;;;;17.80;9.90;;;13.70;89.40;;;;;;5011565;28;20164;-59
2022/05/04 08:51:14;;;;;;;18.25;9.63;;;13.60;90.40;;;;;;5011532;28;20091;-56
2022/05/04 08:53:42;;;;;;;16.60;9.88;;;13.50;91.10;;;;;;5011406;28;20034;-60
2022/05/04 08:56:08;;;;;;;19.35;9.55;;;13.50;91.60;;;;;;5011453;28;20473;-61
2022/05/04 08:58:39;;;;;;;17.75;9.85;;;13.60;91.70;;;;;;5011664;28;20026;-60
2022/05/04 09:01:05;;;;;;;20.08;10.65;;;13.70;91.80;;;;;;5011167;28;20030;-61
2022/05/04 09:03:34;;;;;;;16.33;11.13;;;13.70;92.00;;;;;;5009895;28;20072;-59
2022/05/04 09:06:00;;;;;;;17.52;11.00;;;13.70;92.40;;;;;;5010889;28;20042;-61
2022/05/04 09:08:25;;;;;;;23.67;10.65;;;13.70;92.40;;;;;;5011487;28;20037;-58
2022/05/04 09:10:51;;;;;;;13.27;10.27;;;13.50;92.50;;;;;;5011460;28;20080;-58
2022/05/04 09:13:19;;;;;;;18.02;10.82;;;13.60;92.40;;;;;;5011579;28;20033;-61
2022/05/04 09:15:45;;;;;;;21.48;10.80;;;13.70;91.80;;;;;;5011359;28;20088;-58
2022/05/04 09:18:16;;;;;;;16.63;10.23;;;13.80;92.60;;;;;;5010386;28;20026;-59
2022/05/04 09:20:58;;;;;;;15.60;9.52;;;14.00;93.00;;;;;;5010236;28;20053;-58
2022/05/04 09:23:32;;;;;;;16.80;10.75;;;14.10;92.80;;;;;;5011255;28;20041;-60
2022/05/04 09:26:05;;;;;;;17.85;10.43;;;14.20;93.10;;;;;;5010736;28;20061;-61
2022/05/04 09:28:30;;;;;;;15.63;9.63;;;14.20;92.90;;;;;;5009977;28;20033;-59
2022/05/04 09:30:58;;;;;;;20.17;10.85;;;14.30;92.80;;;;;;5009857;28;20037;-59
2022/05/04 09:33:27;;;;;;;17.33;10.75;;;14.50;92.60;;;;;;5011236;28;20386;-59
2022/05/04 09:35:54;;;;;;;16.05;9.95;;;14.60;92.30;;;;;;5010125;28;20034;-60
2022/05/04 09:46:42;;;;;;;13.18;9.43;;;14.40;91.70;;;;;;5009066;28;20029;-62
2022/05/04 09:49:20;;;;;;;19.13;10.40;;;14.40;91.40;;;;;;5010482;28;20093;-59
2022/05/04 09:51:51;;;;;;;13.63;8.68;;;14.60;91.60;;;;;;5008225;28;20124;-59
2022/05/04 09:54:29;;;;;;;18.50;10.50;;;14.80;91.50;;;;;;5009927;28;20544;-59
2022/05/04 09:56:56;;;;;;;18.27;10.43;;;14.90;91.30;;;;;;5008838;28;20485;-60
2022/05/04 09:59:25;;;;;;;17.58;10.45;;;15.00;91.10;;;;;;5007873;28;20660;-61
2022/05/04 10:01:52;;;;;;;16.35;10.18;;;15.00;91.00;;;;;;5008938;28;20414;-59
2022/05/04 10:04:23;;;;;;;13.38;9.32;;;15.00;90.70;;;;;;5010271;28;20498;-59
2022/05/04 10:06:53;;;;;;;15.48;9.35;;;15.00;90.70;;;;;;5010215;28;20124;-58
2022/05/04 10:09:20;;;;;;;12.60;9.80;;;15.00;90.60;;;;;;5010434;28;20515;-58
2022/05/04 10:11:46;;;;;;;20.80;11.00;;;15.10;90.70;;;;;;5010384;28;20045;-59
2022/05/04 10:14:15;;;;;;;16.20;9.27;;;15.10;91.00;;;;;;5009105;28;20041;-59
2022/05/04 10:17:04;;;;;;;15.70;8.95;;;15.10;91.50;;;;;;5008372;28;20049;-59
2022/05/04 10:19:58;;;;;;;15.60;9.73;;;15.00;91.40;;;;;;5009746;28;20034;-60
2022/05/04 10:22:36;;;;;;;18.50;10.15;;;15.10;91.50;;;;;;5009389;28;20042;-60
2022/05/04 10:25:04;;;;;;;15.75;10.15;;;15.20;91.50;;;;;;5008596;28;20161;-59
2022/05/04 10:27:29;;;;;;;14.93;10.30;;;15.20;91.10;;;;;;5010239;28;20026;-59
2022/05/04 10:32:49;;;;;;;12.82;8.70;;;15.50;91.20;;;;;;5019164;28;20120;-57
2022/05/04 10:35:20;;;;;;;16.80;9.10;;;15.50;90.80;;;;;;5020489;28;20026;-56
2022/05/04 10:37:57;;;;;;;19.67;10.05;;;15.60;90.70;;;;;;5014296;28;20038;-59
2022/05/04 10:40:34;;;;;;;17.13;9.73;;;15.50;90.60;;;;;;5013325;28;20421;-58
2022/05/04 10:43:04;;;;;;;16.23;9.65;;;15.60;91.50;;;;;;5013599;28;20537;-55
2022/05/04 10:45:37;;;;;;;12.98;8.85;;;15.70;91.30;;;;;;5012688;28;20030;-58
2022/05/04 10:48:15;;;;;;;12.55;9.00;;;15.90;91.10;;;;;;5013023;28;20068;-57
2022/05/04 10:50:56;;;;;;;14.85;9.63;;;16.00;90.90;;;;;;5013637;28;20022;-56
2022/05/04 10:53:27;;;;;;;14.95;9.95;;;16.20;90.00;;;;;;5012691;28;20550;-60
2022/05/04 10:56:01;;;;;;;14.13;9.55;;;16.30;90.00;;;;;;5012784;28;20052;-59
2022/05/04 10:58:43;;;;;;;13.90;9.90;;;16.60;89.50;;;;;;5013452;28;20049;-56
2022/05/04 11:01:24;;;;;;;17.42;9.82;;;16.70;88.70;;;;;;5014025;28;20516;-55
2022/05/04 11:04:10;;;;;;;14.00;9.60;;;16.60;88.20;;;;;;5014126;28;21825;-59
2022/05/04 11:06:37;;;;;;;14.75;10.02;;;16.60;87.90;;;;;;5014185;28;20041;-58
2022/05/04 11:09:09;;;;;;;12.43;9.70;;;16.50;88.00;;;;;;5014238;28;20030;-55
2022/05/04 11:11:37;;;;;;;16.33;9.50;;;16.70;87.50;;;;;;5013867;28;20018;-58
2022/05/04 11:14:04;;;;;;;15.40;10.27;;;16.90;87.50;;;;;;5011681;28;20026;-58
2022/05/04 11:16:30;;;;;;;13.18;9.90;;;17.10;86.50;;;;;;5013316;28;20030;-59
2022/05/04 11:18:59;;;;;;;12.52;10.38;;;17.00;86.90;;;;;;5014726;28;20034;-59
2022/05/04 11:21:27;;;;;;;10.25;8.90;;;17.10;86.70;;;;;;5014771;28;20038;-58
2022/05/04 11:23:55;;;;;;;14.10;9.70;;;17.20;86.30;;;;;;5013018;28;20017;-59
2022/05/04 11:26:23;;;;;;;16.67;10.48;;;17.30;86.30;;;;;;5014977;28;20029;-58
2022/05/04 11:28:51;;;;;;;13.02;10.20;;;17.40;85.70;;;;;;5014906;28;20026;-57
2022/05/04 11:31:18;;;;;;;12.90;9.65;;;17.50;85.40;;;;;;5013224;28;20132;-57
2022/05/04 11:33:44;;;;;;;15.23;9.68;;;17.60;85.40;;;;;;5012628;28;20068;-56
2022/05/04 11:36:11;;;;;;;12.55;10.25;;;17.80;85.20;;;;;;5013278;28;20037;-51
2022/05/04 11:38:36;;;;;;;10.43;9.20;;;18.00;84.50;;;;;;5013209;28;20497;-60
2022/05/04 11:41:02;;;;;;;37.13;12.10;;;18.10;84.80;;;;;;5012965;28;20088;-55
2022/05/04 11:43:34;;;;;;;18.67;10.43;;;18.30;85.30;;;;;;5012206;28;20045;-53
2022/05/04 11:46:06;;;;;;;13.90;10.40;;;18.50;84.40;;;;;;5012718;28;20037;-60
2022/05/04 11:48:50;;;;;;;13.13;9.60;;;18.40;83.80;;;;;;5010376;28;20812;-58
2022/05/04 11:51:16;;;;;;;11.90;9.30;;;18.60;83.20;;;;;;5013838;28;20061;-52
2022/05/04 11:53:43;;;;;;;16.85;9.68;;;18.70;83.40;;;;;;5012889;28;20073;-58
2022/05/04 11:56:09;;;;;;;12.45;10.55;;;18.90;83.00;;;;;;5012642;28;20401;-52
2022/05/04 11:58:37;;;;;;;12.35;10.18;;;19.00;82.80;;;;;;5012841;28;20033;-58
2022/05/04 12:01:04;;;;;;;12.30;9.82;;;19.10;82.40;;;;;;5010863;28;20030;-56
2022/05/04 12:03:33;;;;;;;13.02;10.75;;;19.30;81.30;;;;;;5010398;28;20030;-57
2022/05/04 12:06:01;;;;;;;13.43;10.63;;;19.20;79.60;;;;;;5011945;28;20038;-58
2022/05/04 12:08:27;;;;;;;14.15;11.10;;;19.20;80.20;;;;;;5011817;28;20124;-57
2022/05/04 12:10:54;;;;;;;13.73;11.35;;;19.10;80.20;;;;;;5012370;28;20058;-59
2022/05/04 12:13:22;;;;;;;21.77;14.30;;;19.10;81.50;;;;;;5011969;28;20037;-58
2022/05/04 12:15:49;;;;;;;20.85;13.50;;;19.10;81.60;;;;;;5011823;28;20578;-59
2022/05/04 12:18:15;;;;;;;12.35;11.15;;;19.20;81.20;;;;;;5012259;28;20034;-58
2022/05/04 12:20:46;;;;;;;11.50;10.30;;;19.20;80.30;;;;;;5011238;28;20237;-59
2022/05/04 12:23:12;;;;;;;11.43;10.32;;;19.40;80.90;;;;;;5011263;28;20041;-58
2022/05/04 12:25:40;;;;;;;16.60;9.07;;;19.60;79.60;;;;;;5011680;28;20060;-57
2022/05/04 12:28:05;;;;;;;17.00;11.77;;;19.80;79.00;;;;;;5011937;28;20026;-58
2022/05/04 12:33:23;;;;;;;16.63;13.50;;;20.00;76.60;;;;;;5010895;28;20097;-58
2022/05/04 12:35:48;;;;;;;15.82;13.68;;;20.20;76.40;;;;;;5010775;28;20125;-59
2022/05/04 12:38:18;;;;;;;14.30;11.88;;;20.20;76.60;;;;;;5011638;28;20045;-59
2022/05/04 12:40:44;;;;;;;16.67;10.50;;;20.20;76.20;;;;;;5011179;28;20034;-59
2022/05/04 12:43:10;;;;;;;13.73;12.15;;;20.10;76.70;;;;;;5010798;28;20076;-56
2022/05/04 12:45:37;;;;;;;12.70;11.05;;;20.00;76.50;;;;;;5010010;28;20038;-57
2022/05/04 12:48:10;;;;;;;14.02;11.20;;;20.10;77.50;;;;;;5010771;28;20415;-56
2022/05/04 12:50:37;;;;;;;14.15;9.75;;;20.20;76.50;;;;;;5011352;28;20038;-59
2022/05/04 12:53:04;;;;;;;15.57;10.90;;;20.20;76.60;;;;;;5009401;28;20064;-57
2022/05/04 12:58:14;;;;;;;12.30;10.23;;;20.50;75.50;;;;;;5011247;28;20486;-59
2022/05/04 13:00:40;;;;;;;12.52;11.27;;;20.80;75.90;;;;;;5011716;28;20041;-58
2022/05/04 13:03:09;;;;;;;16.33;10.95;;;20.90;75.20;;;;;;5011472;28;20048;-56
2022/05/04 13:05:34;;;;;;;17.80;11.65;;;20.90;74.30;;;;;;5010724;28;20042;-59
2022/05/04 13:08:00;;;;;;;13.48;10.45;;;21.00;75.30;;;;;;5011300;28;20045;-57
2022/05/04 13:10:26;;;;;;;13.10;11.65;;;21.00;74.50;;;;;;5011893;28;20046;-54